Time;durP1;ratioP1;P1;durP2;ratioP2;P2;SDS_P1;SDS_P2;PMS_P1;PMS_P2;Temp;Humidity;BMP_temperature;BMP_pressure;BME280_temperature;BME280_humidity;BME280_pressure;Samples;Min_cycle;Max_cycle;Signal;HPM_P1;HPM_P2
2022/04/02 00:00:48;;;;;;;7.78;2.25;;;;;;;1.78;75.58;98460.63;5029729;28;20053;-49
2022/04/02 00:03:32;;;;;;;5.60;2.05;;;;;;;1.65;74.15;98453.88;5029828;28;20184;-49
2022/04/02 00:06:16;;;;;;;5.20;2.08;;;;;;;1.72;73.19;98458.09;5030099;28;20057;-49
2022/04/02 00:09:01;;;;;;;4.45;1.90;;;;;;;1.86;74.00;98447.66;5028901;28;20597;-49
2022/04/02 00:11:45;;;;;;;9.82;2.63;;;;;;;1.79;72.58;98430.53;5029709;28;20049;-49
2022/04/02 00:14:30;;;;;;;12.15;2.47;;;;;;;1.75;73.25;98441.72;5029530;28;20053;-49
2022/04/02 00:17:14;;;;;;;6.22;2.25;;;;;;;1.86;73.21;98445.06;5030314;28;20064;-49
2022/04/02 00:19:59;;;;;;;7.75;1.90;;;;;;;1.58;72.90;98439.34;5029354;28;20053;-49
2022/04/02 00:23:35;;;;;;;7.85;2.58;;;;;;;1.59;72.48;98448.78;5029426;28;20050;-49
2022/04/02 00:25:47;;;;;;;5.40;1.80;;;;;;;1.54;73.45;98425.63;5029487;28;20119;-49
2022/04/02 00:28:32;;;;;;;5.95;1.98;;;;;;;1.71;72.58;98434.91;5030060;28;20751;-49
2022/04/02 00:31:18;;;;;;;7.10;1.60;;;;;;;1.89;73.00;98451.94;5029147;28;20053;-49
2022/04/02 00:34:03;;;;;;;8.05;2.17;;;;;;;1.81;74.11;98446.84;5030174;28;20049;-49
2022/04/02 00:36:47;;;;;;;7.70;1.70;;;;;;;1.66;75.22;98450.47;5029681;28;20077;-49
2022/04/02 00:39:31;;;;;;;10.00;3.88;;;;;;;1.70;75.92;98457.28;5028048;28;20045;-49
2022/04/02 00:42:15;;;;;;;10.30;2.20;;;;;;;1.66;76.71;98445.28;5029207;28;20396;-49
2022/04/02 00:45:00;;;;;;;6.47;1.98;;;;;;;1.67;76.55;98456.47;5027770;28;20054;-49
2022/04/02 00:47:44;;;;;;;5.60;2.22;;;;;;;1.49;76.47;98460.06;5028496;28;21483;-49
2022/04/02 00:50:30;;;;;;;11.60;2.58;;;;;;;1.57;76.17;98456.56;5028983;28;20442;-49
2022/04/02 00:53:15;;;;;;;7.75;2.60;;;;;;;1.62;77.56;98457.34;5028802;28;20404;-49
2022/04/02 00:56:00;;;;;;;16.20;2.70;;;;;;;1.61;78.00;98444.47;5029082;28;20057;-49
2022/04/02 00:58:47;;;;;;;8.20;2.20;;;;;;;1.53;78.54;98456.63;5027292;28;20450;-49
2022/04/02 01:01:32;;;;;;;7.70;2.63;;;;;;;1.37;79.50;98456.75;5027979;28;20045;-49
2022/04/02 01:04:18;;;;;;;6.53;2.60;;;;;;;1.43;79.81;98444.66;5027373;28;20112;-49
2022/04/02 01:07:04;;;;;;;7.20;2.40;;;;;;;1.46;80.11;98462.69;5027234;28;20125;-49
2022/04/02 01:09:48;;;;;;;5.43;2.53;;;;;;;1.53;80.09;98454.88;5027138;28;20050;-49
2022/04/02 01:12:34;;;;;;;7.38;2.30;;;;;;;1.53;79.47;98465.22;5027885;28;20037;-49
2022/04/02 01:15:18;;;;;;;6.97;2.20;;;;;;;1.36;80.29;98447.28;5027236;28;20045;-49
2022/04/02 01:18:08;;;;;;;4.85;2.03;;;;;;;1.45;79.74;98453.25;5026942;28;20765;-49
2022/04/02 01:20:54;;;;;;;4.00;1.45;;;;;;;1.55;79.41;98447.97;5027687;28;20049;-49
2022/04/02 01:23:46;;;;;;;4.82;2.20;;;;;;;1.37;79.88;98449.03;5027626;28;20052;-49
2022/04/02 01:26:34;;;;;;;6.50;1.77;;;;;;;1.52;79.22;98460.91;5027490;28;20034;-49
2022/04/02 01:29:32;;;;;;;4.85;1.98;;;;;;;1.58;79.38;98457.41;5025674;28;20610;-49
2022/04/02 01:32:18;;;;;;;8.30;2.83;;;;;;;1.41;79.31;98455.00;5026311;28;20057;-49
2022/04/02 01:35:10;;;;;;;3.92;1.63;;;;;;;1.46;79.89;98460.09;5027673;28;20049;-49
2022/04/02 01:37:56;;;;;;;6.05;2.70;;;;;;;1.46;79.96;98462.69;5026800;28;20498;-49
2022/04/02 01:40:42;;;;;;;9.35;2.03;;;;;;;1.47;79.86;98460.09;5027350;28;20057;-49
2022/04/02 01:43:29;;;;;;;10.23;2.10;;;;;;;1.34;80.28;98467.09;5026551;28;20134;-49
2022/04/02 01:46:15;;;;;;;9.15;1.80;;;;;;;1.34;81.94;98469.69;5027532;28;20143;-49
2022/04/02 01:49:00;;;;;;;3.90;1.88;;;;;;;1.39;81.64;98465.31;5025225;28;20049;-49
2022/04/02 01:51:45;;;;;;;7.68;1.90;;;;;;;1.36;81.14;98467.09;5026396;28;20045;-49
2022/04/02 01:54:33;;;;;;;7.82;2.30;;;;;;;1.22;81.95;98464.63;5025358;28;20056;-49
2022/04/02 01:57:23;;;;;;;3.85;2.05;;;;;;;1.34;82.50;98469.69;5026577;28;20053;-49
2022/04/02 02:00:09;;;;;;;5.72;2.33;;;;;;;1.33;82.59;98465.41;5026327;28;20059;-49
2022/04/02 02:02:59;;;;;;;5.88;2.22;;;;;;;1.21;83.65;98477.56;5027212;28;20048;-49
2022/04/02 02:05:44;;;;;;;5.13;2.30;;;;;;;1.29;83.30;98474.03;5027176;28;20053;-48
2022/04/02 02:08:29;;;;;;;7.60;2.83;;;;;;;1.34;83.13;98480.00;5027286;28;20077;-49
2022/04/02 02:11:37;;;;;;;7.85;3.47;;;;;;;1.28;83.70;98474.06;5019856;28;20464;-49
2022/04/02 02:14:40;;;;;;;8.68;2.50;;;;;;;1.44;83.94;98477.34;5027124;28;20057;-49
2022/04/02 02:17:34;;;;;;;4.07;1.90;;;;;;;1.36;84.00;98479.97;5026043;28;20069;-49
2022/04/02 02:20:21;;;;;;;3.72;1.92;;;;;;;1.25;84.02;98479.22;5027962;28;20149;-49
2022/04/02 02:23:05;;;;;;;6.57;1.95;;;;;;;1.33;84.57;98477.44;5025986;28;20078;-49
2022/04/02 02:25:50;;;;;;;6.20;2.40;;;;;;;1.27;84.31;98470.63;5027044;28;20140;-49
2022/04/02 02:28:36;;;;;;;6.75;1.63;;;;;;;1.37;84.01;98485.16;5025440;28;20041;-49
2022/04/02 02:31:20;;;;;;;5.55;2.17;;;;;;;1.31;85.12;98477.47;5025504;28;20042;-49
2022/04/02 02:37:16;;;;;;;3.72;2.03;;;;;;;1.06;85.61;98468.22;5025722;28;20041;-48
2022/04/02 02:40:12;;;;;;;4.18;1.75;;;;;;;1.16;85.98;98480.16;5025628;28;20484;-49
2022/04/02 02:42:57;;;;;;;6.55;2.40;;;;;;;1.07;87.01;98468.22;5025390;28;20041;-49
2022/04/02 02:45:48;;;;;;;4.72;2.25;;;;;;;0.96;89.00;98476.91;5024864;28;20053;-49
2022/04/02 02:48:34;;;;;;;5.13;2.40;;;;;;;1.06;89.57;98475.94;5025609;28;20041;-48
2022/04/02 02:51:19;;;;;;;11.30;1.75;;;;;;;0.95;90.25;98478.63;5026830;28;20075;-49
2022/04/02 02:54:05;;;;;;;3.97;2.05;;;;;;;0.89;91.37;98476.94;5025850;28;20037;-49
2022/04/02 02:56:51;;;;;;;6.05;2.15;;;;;;;0.89;92.40;98483.81;5025938;28;20514;-50
2022/04/02 02:59:36;;;;;;;6.95;2.40;;;;;;;0.67;93.42;98486.53;5025382;28;20049;-49
2022/04/02 03:02:22;;;;;;;4.28;2.35;;;;;;;0.71;93.87;98484.78;5025502;28;20049;-49
2022/04/02 03:05:13;;;;;;;4.03;1.90;;;;;;;0.61;95.39;98491.72;5026342;28;20534;-49
2022/04/02 03:07:59;;;;;;;5.00;2.08;;;;;;;0.64;96.09;98483.97;5024828;28;20083;-49
2022/04/02 03:10:55;;;;;;;5.57;1.98;;;;;;;0.70;96.18;98485.66;5025481;28;20068;-49
2022/04/02 03:13:44;;;;;;;10.43;2.90;;;;;;;0.74;96.51;98492.50;5020199;28;20037;-49
2022/04/02 03:16:32;;;;;;;4.45;2.45;;;;;;;0.84;96.41;98496.72;5022507;28;20057;-49
2022/04/02 03:19:20;;;;;;;5.47;3.00;;;;;;;0.72;97.03;98503.72;5023835;28;20046;-49
2022/04/02 03:22:09;;;;;;;3.30;2.33;;;;;;;0.57;97.92;98500.34;5023113;28;20053;-49
2022/04/02 03:24:54;;;;;;;6.15;3.28;;;;;;;0.63;96.75;98499.47;5021979;28;20053;-48
2022/04/02 03:27:40;;;;;;;6.15;2.72;;;;;;;0.64;94.77;98502.00;5026734;28;20045;-49
2022/04/02 03:30:25;;;;;;;7.45;2.47;;;;;;;0.67;95.16;98504.56;5026659;28;20038;-49
2022/04/02 03:33:11;;;;;;;5.20;2.78;;;;;;;0.76;95.36;98495.94;5024949;28;20110;-49
2022/04/02 03:35:56;;;;;;;6.70;2.53;;;;;;;0.70;94.69;98507.13;5026527;28;20049;-49
2022/04/02 03:38:43;;;;;;;6.32;2.88;;;;;;;0.73;94.34;98502.84;5026382;28;20586;-48
2022/04/02 03:41:32;;;;;;;9.88;3.33;;;;;;;0.61;95.49;98511.47;5028498;28;20217;-49
2022/04/02 03:44:20;;;;;;;7.10;3.35;;;;;;;0.61;96.84;98514.06;5028501;28;20042;-49
2022/04/02 03:47:10;;;;;;;5.18;2.70;;;;;;;0.64;96.27;98517.47;5025924;28;20328;-49
2022/04/02 03:50:06;;;;;;;7.70;2.95;;;;;;;0.61;96.07;98516.63;5025877;28;20041;-48
2022/04/02 03:52:59;;;;;;;7.97;2.92;;;;;;;0.67;95.94;98519.19;5026535;28;20061;-48
2022/04/02 03:55:50;;;;;;;8.13;3.30;;;;;;;0.49;96.04;98508.97;5026596;28;20443;-48
2022/04/02 03:58:42;;;;;;;7.65;3.08;;;;;;;0.32;97.77;98509.06;5025108;28;20045;-48
2022/04/02 04:01:31;;;;;;;5.60;3.20;;;;;;;0.33;98.67;98513.38;5026227;28;20045;-49
2022/04/02 04:04:16;;;;;;;13.27;5.25;;;;;;;0.39;99.63;98519.34;5026660;28;20029;-49
2022/04/02 04:07:04;;;;;;;17.63;8.57;;;;;;;0.16;100.00;98527.16;5026722;28;20053;-49
2022/04/02 04:09:49;;;;;;;11.88;5.18;;;;;;;0.11;100.00;98526.31;5026712;28;20057;-49
2022/04/02 04:12:34;;;;;;;12.18;5.75;;;;;;;0.10;100.00;98529.75;5026794;28;20045;-49
2022/04/02 04:15:21;;;;;;;21.98;9.73;;;;;;;-0.15;100.00;98531.53;5025077;28;20583;-49
2022/04/02 04:18:07;;;;;;;8.30;3.80;;;;;;;-0.11;100.00;98533.25;5027674;28;20081;-49
2022/04/02 04:20:53;;;;;;;9.32;3.38;;;;;;;-0.30;100.00;98535.00;5028064;28;20136;-49
2022/04/02 04:23:43;;;;;;;6.05;4.07;;;;;;;-0.23;100.00;98543.56;5028813;28;20049;-49
2022/04/02 04:26:29;;;;;;;7.90;3.63;;;;;;;-0.43;100.00;98540.16;5028535;28;20050;-49
2022/04/02 04:29:14;;;;;;;10.80;3.70;;;;;;;-0.50;100.00;98540.16;5030169;28;20041;-49
2022/04/02 04:31:59;;;;;;;10.80;4.35;;;;;;;-0.56;100.00;98535.03;5028165;28;20044;-48
2022/04/02 04:34:43;;;;;;;10.40;4.22;;;;;;;-0.69;100.00;98546.19;5028977;28;20053;-49
2022/04/02 04:37:28;;;;;;;9.23;4.25;;;;;;;-0.56;100.00;98544.47;5029727;28;20561;-48
2022/04/02 04:40:13;;;;;;;6.97;4.05;;;;;;;-0.58;100.00;98548.78;5028509;28;20045;-49
2022/04/02 04:43:01;;;;;;;10.25;4.18;;;;;;;-0.65;100.00;98549.59;5027687;28;20049;-49
2022/04/02 04:45:57;;;;;;;9.70;4.63;;;;;;;-0.77;100.00;98553.06;5026789;28;20090;-49
2022/04/02 04:48:42;;;;;;;10.63;4.20;;;;;;;-0.61;100.00;98556.47;5029655;28;20061;-49
2022/04/02 04:51:27;;;;;;;10.93;4.53;;;;;;;-0.73;100.00;98552.19;5028062;28;20049;-49
2022/04/02 04:54:16;;;;;;;6.28;4.10;;;;;;;-0.89;100.00;98563.31;5027625;28;20488;-49
2022/04/02 04:57:03;;;;;;;7.90;4.82;;;;;;;-0.88;100.00;98559.88;5027620;28;20352;-49
2022/04/02 04:59:48;;;;;;;15.48;5.32;;;;;;;-0.83;100.00;98565.91;5028505;28;20046;-48
2022/04/02 05:02:35;;;;;;;10.50;5.38;;;;;;;-0.79;100.00;98559.91;5027697;28;20045;-49
2022/04/02 05:05:23;;;;;;;12.75;4.90;;;;;;;-0.92;100.00;98569.31;5027731;28;20069;-49
2022/04/02 05:08:08;;;;;;;9.48;4.60;;;;;;;-0.89;100.00;98565.88;5027751;28;20057;-48
2022/04/02 05:10:55;;;;;;;7.85;4.10;;;;;;;-0.78;100.00;98564.16;5028059;28;20196;-48
2022/04/02 05:13:46;;;;;;;17.10;5.05;;;;;;;-0.97;100.00;98571.03;5027789;28;20431;-49
2022/04/02 05:16:36;;;;;;;8.88;4.75;;;;;;;-0.86;100.00;98569.31;5027735;28;20076;-48
2022/04/02 05:19:24;;;;;;;9.27;4.60;;;;;;;-0.88;100.00;98576.16;5028164;28;20037;-49
2022/04/02 05:22:10;;;;;;;12.20;5.57;;;;;;;-0.96;100.00;98576.16;5027657;28;20049;-49
2022/04/02 05:25:02;;;;;;;9.13;5.93;;;;;;;-0.80;100.00;98577.03;5026628;28;20099;-49
2022/04/02 05:27:47;;;;;;;14.15;5.45;;;;;;;-0.86;100.00;98578.75;5027037;28;20200;-48
2022/04/02 05:30:34;;;;;;;10.68;5.15;;;;;;;-0.93;100.00;98572.75;5027452;28;20103;-49
2022/04/02 05:33:19;;;;;;;10.63;5.47;;;;;;;-0.63;100.00;98571.91;5027097;28;20042;-48
2022/04/02 05:36:05;;;;;;;9.05;5.57;;;;;;;-0.66;100.00;98581.34;5028951;28;20045;-49
2022/04/02 05:38:50;;;;;;;10.40;5.68;;;;;;;-0.53;100.00;98578.75;5027295;28;20099;-48
2022/04/02 05:41:37;;;;;;;11.85;6.10;;;;;;;-0.56;100.00;98577.91;5027372;28;20048;-49
2022/04/02 05:44:21;;;;;;;12.10;6.05;;;;;;;-0.52;100.00;98579.59;5025915;28;20077;-49
2022/04/02 05:47:06;;;;;;;13.68;6.25;;;;;;;-0.49;100.00;98583.06;5027067;28;20684;-49
2022/04/02 05:49:52;;;;;;;13.57;8.00;;;;;;;-0.72;100.00;98580.47;5026512;28;20038;-49
2022/04/02 05:52:37;;;;;;;11.73;6.05;;;;;;;-0.53;100.00;98581.31;5027603;28;20041;-49
2022/04/02 05:55:22;;;;;;;11.45;7.10;;;;;;;-0.51;100.00;98579.63;5024304;28;20045;-48
2022/04/02 05:58:06;;;;;;;11.18;6.65;;;;;;;-0.42;100.00;98577.88;5023676;28;20042;-48
2022/04/02 06:00:50;;;;;;;26.85;8.88;;;;;;;-0.47;100.00;98581.31;5023906;28;20089;-49
2022/04/02 06:03:37;;;;;;;8.90;5.72;;;;;;;-0.44;100.00;98587.34;5023328;28;20684;-49
2022/04/02 06:06:21;;;;;;;11.75;6.03;;;;;;;-0.34;100.00;98586.47;5024636;28;20045;-49
2022/04/02 06:09:06;;;;;;;15.18;7.80;;;;;;;-0.36;100.00;98598.47;5024612;28;20060;-49
2022/04/02 06:11:50;;;;;;;9.88;5.90;;;;;;;-0.28;100.00;98581.31;5023797;28;20662;-49
2022/04/02 06:14:34;;;;;;;15.23;7.03;;;;;;;-0.49;100.00;98577.91;5023938;28;20049;-49
2022/04/02 06:17:19;;;;;;;12.70;5.60;;;;;;;-0.32;100.00;98589.91;5022226;28;20077;-49
2022/04/02 06:20:05;;;;;;;18.63;7.70;;;;;;;-0.27;100.00;98595.91;5022571;28;20049;-49
2022/04/02 06:22:50;;;;;;;20.45;7.85;;;;;;;-0.36;100.00;98596.75;5023252;28;20049;-49
2022/04/02 06:25:34;;;;;;;14.55;7.40;;;;;;;-0.28;100.00;98601.91;5022242;28;20072;-49
2022/04/02 06:28:19;;;;;;;21.27;10.00;;;;;;;-0.19;100.00;98595.91;5022334;28;20144;-49
2022/04/02 06:31:04;;;;;;;20.08;8.65;;;;;;;-0.29;100.00;98602.78;5022283;28;20042;-49
2022/04/02 06:33:55;;;;;;;18.50;7.40;;;;;;;-0.25;100.00;98604.50;5022422;28;20065;-49
2022/04/02 06:36:39;;;;;;;21.58;11.95;;;;;;;0.02;100.00;98600.16;5022725;28;20037;-49
2022/04/02 06:39:23;;;;;;;18.15;7.07;;;;;;;0.03;100.00;98610.44;5024124;28;20091;-49
2022/04/02 06:42:08;;;;;;;18.23;7.63;;;;;;;0.13;100.00;98607.00;5023811;28;20713;-48
2022/04/02 06:44:59;;;;;;;19.55;8.40;;;;;;;-0.04;100.00;98603.59;5022354;28;20045;-48
2022/04/02 06:47:44;;;;;;;22.60;7.22;;;;;;;-0.08;100.00;98610.47;5022374;28;20434;-49
2022/04/02 06:50:28;;;;;;;17.50;8.57;;;;;;;0.07;100.00;98603.59;5023207;28;20053;-48
2022/04/02 06:53:13;;;;;;;22.20;8.02;;;;;;;0.00;100.00;98613.03;5023743;28;20041;-48
2022/04/02 06:55:57;;;;;;;20.90;9.43;;;;;;;0.07;100.00;98609.59;5023035;28;20080;-48
2022/04/02 06:58:42;;;;;;;18.73;8.23;;;;;;;0.08;100.00;98619.03;5022649;28;20050;-48
2022/04/02 07:01:26;;;;;;;16.20;7.43;;;;;;;0.05;100.00;98616.44;5022559;28;20095;-48
2022/04/02 07:04:11;;;;;;;13.57;7.38;;;;;;;0.11;100.00;98613.88;5022491;28;20049;-49
2022/04/02 07:06:55;;;;;;;16.73;8.38;;;;;;;0.29;100.00;98618.09;5023133;28;20053;-48
2022/04/02 07:09:40;;;;;;;11.90;6.35;;;;;;;0.28;98.68;98624.13;5024856;28;20080;-48
2022/04/02 07:12:24;;;;;;;11.18;5.80;;;;;;;0.33;95.56;98630.13;5025660;28;20514;-48
2022/04/02 07:15:10;;;;;;;43.50;14.25;;;;;;;0.37;97.10;98634.41;5023859;28;20041;-48
2022/04/02 07:17:54;;;;;;;11.10;4.53;;;;;;;0.58;92.63;98632.63;5025589;28;20042;-48
2022/04/02 07:20:40;;;;;;;11.13;5.45;;;;;;;0.54;90.95;98626.63;5024201;28;20057;-46
2022/04/02 07:23:24;;;;;;;16.00;6.13;;;;;;;0.42;91.75;98631.81;5025281;28;20137;-48
2022/04/02 07:26:12;;;;;;;12.55;6.75;;;;;;;0.51;91.28;98634.34;5023180;28;20049;-48
2022/04/02 07:28:58;;;;;;;15.38;7.20;;;;;;;0.47;93.21;98636.09;5025623;28;20046;-48
2022/04/02 07:31:45;;;;;;;21.55;8.45;;;;;;;0.60;94.33;98636.06;5024299;28;20667;-47
2022/04/02 07:34:30;;;;;;;47.67;17.45;;;;;;;0.65;94.41;98642.03;5026567;28;20041;-48
2022/04/02 07:37:35;;;;;;;57.53;22.83;;;;;;;0.61;94.09;98640.34;5025378;28;20049;-48
2022/04/02 07:40:24;;;;;;;43.08;17.67;;;;;;;0.72;94.96;98648.06;5025612;28;20041;-48
2022/04/02 07:43:39;;;;;;;20.85;9.93;;;;;;;0.75;95.64;98641.16;5023366;28;20050;-48
2022/04/02 07:46:29;;;;;;;39.45;15.13;;;;;;;0.74;94.72;98649.72;5023944;28;20057;-48
2022/04/02 07:49:20;;;;;;;34.83;12.93;;;;;;;0.35;92.74;98656.72;5025094;28;20046;-48
2022/04/02 07:52:05;;;;;;;20.95;8.70;;;;;;;0.43;96.04;98649.84;5025412;28;20098;-48
2022/04/02 07:54:56;;;;;;;13.23;7.53;;;;;;;0.69;96.55;98646.34;5025013;28;20053;-48
2022/04/02 07:57:43;;;;;;;13.80;6.55;;;;;;;0.87;94.24;98650.53;5023639;28;20053;-49
2022/04/02 08:00:28;;;;;;;14.40;5.40;;;;;;;0.85;93.07;98649.72;5025320;28;20057;-49
2022/04/02 08:03:12;;;;;;;43.70;14.30;;;;;;;0.70;91.21;98653.19;5025656;28;20486;-49
2022/04/02 08:05:57;;;;;;;30.83;10.48;;;;;;;0.99;91.00;98659.94;5026850;28;20041;-49
2022/04/02 08:08:42;;;;;;;43.97;13.23;;;;;;;0.83;90.07;98654.00;5025533;28;20317;-50
2022/04/02 08:11:27;;;;;;;24.27;9.57;;;;;;;0.96;90.87;98655.66;5027803;28;20771;-49
2022/04/02 08:14:11;;;;;;;19.90;6.82;;;;;;;1.19;90.27;98657.25;5028704;28;20045;-49
2022/04/02 08:16:57;;;;;;;19.67;8.57;;;;;;;1.28;90.62;98662.38;5029167;28;20469;-49
2022/04/02 08:19:41;;;;;;;14.32;6.22;;;;;;;1.68;90.60;98654.34;5029477;28;20689;-48
2022/04/02 08:22:27;;;;;;;7.10;4.18;;;;;;;1.84;88.38;98654.22;5029334;28;20053;-49
2022/04/02 08:25:12;;;;;;;12.68;5.97;;;;;;;1.74;86.66;98665.50;5029582;28;20045;-49
2022/04/02 08:28:08;;;;;;;16.23;7.28;;;;;;;1.83;85.27;98660.25;5027421;28;20053;-49
2022/04/02 08:31:30;;;;;;;16.85;8.00;;;;;;;1.67;88.19;98673.31;5027402;28;20054;-49
2022/04/02 08:34:42;;;;;;;15.07;6.85;;;;;;;1.56;89.47;98681.09;5019512;28;20060;-49
2022/04/02 08:37:54;;;;;;;11.75;6.35;;;;;;;1.53;92.74;98687.16;5027022;28;20049;-49
2022/04/02 08:41:14;;;;;;;13.43;7.18;;;;;;;1.68;93.97;98686.19;5026572;28;20053;-49
2022/04/02 08:44:20;;;;;;;21.13;9.55;;;;;;;1.48;95.14;98688.06;5023834;28;20459;-49
2022/04/02 08:47:18;;;;;;;19.02;8.13;;;;;;;1.67;95.66;98691.38;5023545;28;20709;-50
2022/04/02 08:50:10;;;;;;;13.68;5.80;;;;;;;1.81;95.00;98694.69;5025565;28;20053;-50
2022/04/02 08:53:17;;;;;;;9.48;4.93;;;;;;;1.78;94.18;98690.41;5025804;28;20515;-51
2022/04/02 08:56:04;;;;;;;14.75;6.47;;;;;;;1.87;93.99;98687.75;5023366;28;20077;-50
2022/04/02 08:58:51;;;;;;;17.90;8.52;;;;;;;1.62;94.52;98692.25;5025380;28;20046;-50
2022/04/02 09:01:48;;;;;;;19.83;8.55;;;;;;;1.93;97.61;98686.00;5024878;28;20059;-51
2022/04/02 09:04:45;;;;;;;14.73;6.68;;;;;;;2.16;93.33;98694.41;5025616;28;20057;-50
2022/04/02 09:07:56;;;;;;;16.33;6.28;;;;;;;2.00;91.84;98696.28;5025221;28;20049;-50
2022/04/02 09:10:53;;;;;;;21.33;7.55;;;;;;;2.27;91.83;98699.47;5026118;28;20045;-50
2022/04/02 09:14:05;;;;;;;8.35;4.40;;;;;;;2.31;86.41;98703.78;5026519;28;20041;-51
2022/04/02 09:16:53;;;;;;;22.00;7.85;;;;;;;2.75;91.03;98689.50;5025446;28;20389;-51
2022/04/02 09:19:40;;;;;;;21.27;8.07;;;;;;;3.17;88.72;98693.31;5024897;28;20045;-50
2022/04/02 09:22:39;;;;;;;258.27;66.68;;;;;;;3.19;88.44;98699.34;5025523;28;20053;-51
2022/04/02 09:25:48;;;;;;;155.75;41.30;;;;;;;3.59;85.88;98687.56;5025631;28;20056;-50
2022/04/02 09:28:52;;;;;;;76.45;20.30;;;;;;;3.89;81.01;98689.69;5024826;28;20709;-50
2022/04/02 09:32:08;;;;;;;39.00;18.67;;;;;;;3.73;77.44;98685.63;5023668;28;20053;-51
2022/04/02 09:35:14;;;;;;;15.00;5.95;;;;;;;3.59;78.67;98688.44;5024103;28;20050;-50
2022/04/02 09:38:17;;;;;;;12.38;5.90;;;;;;;3.83;76.70;98683.75;5023302;28;20056;-51
2022/04/02 09:41:16;;;;;;;35.28;13.13;;;;;;;3.83;74.93;98694.09;5024445;28;20046;-51
2022/04/02 09:44:22;;;;;;;9.75;5.40;;;;;;;4.17;74.78;98700.47;5021992;28;20057;-51
2022/04/02 09:47:17;;;;;;;11.95;6.75;;;;;;;4.27;75.67;98698.56;5022749;28;20057;-51
2022/04/02 09:50:12;;;;;;;44.65;18.95;;;;;;;4.16;75.24;98701.34;5023282;28;20180;-50
2022/04/02 09:53:24;;;;;;;8.35;5.15;;;;;;;4.31;74.63;98702.81;5023596;28;20365;-51
2022/04/02 09:56:22;;;;;;;10.75;5.30;;;;;;;4.04;73.15;98692.94;5024473;28;20633;-50
2022/04/02 09:59:11;;;;;;;19.20;8.60;;;;;;;4.02;73.76;98692.94;5024028;28;20405;-51
2022/04/02 10:02:04;;;;;;;10.00;4.93;;;;;;;4.11;73.55;98687.59;5023790;28;20049;-50
2022/04/02 10:04:54;;;;;;;31.13;10.68;;;;;;;4.18;75.20;98689.22;5024801;28;20045;-50
2022/04/02 10:08:11;;;;;;;13.02;5.93;;;;;;;4.74;77.39;98693.41;5023204;28;20397;-50
2022/04/02 10:11:00;;;;;;;11.38;5.70;;;;;;;4.54;73.53;98692.03;5024476;28;20053;-50
2022/04/02 10:13:44;;;;;;;43.97;11.75;;;;;;;4.68;73.66;98684.00;5024905;28;20042;-51
2022/04/02 10:16:31;;;;;;;82.50;22.77;;;;;;;4.86;74.28;98682.78;5025363;28;20053;-50
2022/04/02 10:19:17;;;;;;;9.10;4.65;;;;;;;5.14;73.36;98680.50;5022437;28;20056;-51
2022/04/02 10:22:07;;;;;;;38.22;10.25;;;;;;;5.35;73.83;98686.97;5022622;28;20045;-50
2022/04/02 10:24:59;;;;;;;22.80;8.40;;;;;;;5.91;73.56;98679.59;5024810;28;20049;-51
2022/04/02 10:27:44;;;;;;;10.43;4.55;;;;;;;5.95;70.92;98673.50;5023918;28;20092;-51
2022/04/02 10:30:33;;;;;;;15.48;5.25;;;;;;;5.85;70.98;98669.38;5022548;28;20069;-50
2022/04/02 10:33:27;;;;;;;6.78;4.45;;;;;;;5.86;70.24;98679.72;5022873;28;20049;-50
2022/04/02 10:36:12;;;;;;;23.23;8.30;;;;;;;6.03;71.48;98679.34;5024695;28;20219;-50
2022/04/02 10:38:58;;;;;;;22.63;7.88;;;;;;;5.90;70.50;98682.25;5024024;28;20045;-50
2022/04/02 10:41:44;;;;;;;7.72;4.40;;;;;;;5.77;70.72;98686.88;5023434;28;20037;-51
2022/04/02 10:44:41;;;;;;;9.13;5.03;;;;;;;5.91;71.55;98687.41;5022829;28;20041;-51
2022/04/02 10:47:30;;;;;;;15.10;8.25;;;;;;;5.88;70.14;98684.03;5024926;28;20053;-50
2022/04/02 10:50:20;;;;;;;13.27;6.85;;;;;;;5.96;70.61;98677.78;5024683;28;20057;-50
2022/04/02 10:53:05;;;;;;;13.60;6.82;;;;;;;6.08;70.17;98682.69;5024040;28;20041;-50
2022/04/02 10:55:58;;;;;;;8.13;4.35;;;;;;;6.16;69.36;98677.31;5024857;28;20048;-50
2022/04/02 10:58:48;;;;;;;13.70;5.93;;;;;;;6.36;70.67;98668.13;5025538;28;20037;-50
2022/04/02 11:01:38;;;;;;;7.43;4.10;;;;;;;6.30;68.10;98676.94;5024259;28;20041;-50
2022/04/02 11:04:41;;;;;;;15.85;5.50;;;;;;;6.51;70.92;98671.19;5025907;28;20049;-51
2022/04/02 11:07:30;;;;;;;16.02;7.57;;;;;;;6.30;66.22;98682.13;5026579;28;20500;-51
2022/04/02 11:10:17;;;;;;;118.57;47.10;;;;;;;6.48;67.83;98680.81;5023371;28;20061;-50
2022/04/02 11:13:04;;;;;;;30.98;13.55;;;;;;;6.09;67.02;98683.56;5024710;28;20050;-50
2022/04/02 11:15:52;;;;;;;35.80;20.05;;;;;;;6.39;69.04;98686.25;5025541;28;20668;-50
2022/04/02 11:19:53;;;;;;;14.73;4.90;;;;;;;6.02;67.58;98682.84;5022717;28;20041;-50
2022/04/02 11:21:57;;;;;;;19.48;12.18;;;;;;;6.32;68.19;98689.03;5023103;28;20555;-50
2022/04/02 11:24:54;;;;;;;11.40;6.00;;;;;;;6.45;67.49;98694.75;5022689;28;20050;-50
2022/04/02 11:27:40;;;;;;;14.73;7.95;;;;;;;6.28;68.09;98694.34;5022919;28;20149;-50
2022/04/02 11:30:29;;;;;;;21.55;6.65;;;;;;;6.34;68.43;98691.59;5026824;28;20049;-51
2022/04/02 11:33:17;;;;;;;25.38;9.25;;;;;;;6.28;67.36;98703.00;5024658;28;20054;-51
2022/04/02 11:36:06;;;;;;;35.08;13.95;;;;;;;6.24;65.99;98693.56;5024487;28;20057;-51
2022/04/02 11:38:58;;;;;;;89.78;41.05;;;;;;;6.44;66.24;98690.47;5023144;28;21378;-50
2022/04/02 11:41:45;;;;;;;35.00;16.63;;;;;;;6.49;65.43;98695.53;5022710;28;21795;-51
2022/04/02 11:44:36;;;;;;;32.25;18.38;;;;;;;6.37;66.03;98701.94;5001833;28;20038;-51
2022/04/02 11:47:29;;;;;;;35.97;18.25;;;;;;;6.25;66.21;98710.03;5022689;28;20072;-50
2022/04/02 11:50:23;;;;;;;21.80;10.43;;;;;;;6.08;65.32;98695.69;5027856;28;20605;-50
2022/04/02 11:53:08;;;;;;;13.60;5.25;;;;;;;5.99;65.15;98716.72;5026037;28;20049;-51
2022/04/02 11:55:52;;;;;;;13.90;6.45;;;;;;;6.21;65.60;98692.81;5023172;28;20176;-50
2022/04/02 11:58:40;;;;;;;15.75;5.30;;;;;;;5.95;65.61;98696.88;5024939;28;20050;-50
2022/04/02 12:01:24;;;;;;;16.05;5.97;;;;;;;6.00;65.28;98702.81;5025078;28;20050;-50
2022/04/02 12:04:14;;;;;;;11.15;4.80;;;;;;;5.89;64.19;98704.78;5025098;28;20100;-50
2022/04/02 12:07:06;;;;;;;12.95;5.18;;;;;;;5.85;65.44;98695.38;5024942;28;20045;-50
2022/04/02 12:09:52;;;;;;;7.95;3.88;;;;;;;5.87;64.30;98703.97;5022837;28;20666;-50
2022/04/02 12:12:47;;;;;;;21.92;6.38;;;;;;;5.91;66.78;98702.16;5024525;28;20069;-50
2022/04/02 12:15:31;;;;;;;28.27;7.80;;;;;;;6.07;64.30;98695.72;5023154;28;20053;-50
2022/04/02 12:18:15;;;;;;;11.55;5.20;;;;;;;6.37;64.28;98698.44;5025257;28;20042;-51
2022/04/02 12:21:07;;;;;;;15.43;4.90;;;;;;;6.58;63.47;98697.91;5024066;28;20037;-51
2022/04/02 12:23:56;;;;;;;17.35;4.15;;;;;;;6.81;62.17;98696.44;5025684;28;20467;-50
2022/04/02 12:26:45;;;;;;;20.08;5.20;;;;;;;6.81;61.29;98702.47;5025534;28;20041;-50
2022/04/02 12:29:31;;;;;;;17.02;4.32;;;;;;;6.77;58.28;98696.50;5026492;28;20479;-50
2022/04/02 12:32:32;;;;;;;25.23;9.43;;;;;;;6.64;59.41;98686.47;5027349;28;20045;-51
2022/04/02 12:35:24;;;;;;;12.70;4.68;;;;;;;6.91;58.14;98688.31;5027618;28;20128;-50
2022/04/02 12:38:22;;;;;;;12.43;4.13;;;;;;;7.12;56.12;98683.41;5023059;28;20038;-50
2022/04/02 12:41:20;;;;;;;20.80;5.35;;;;;;;7.26;57.46;98691.66;5026982;28;20049;-50
2022/04/02 12:44:09;;;;;;;54.53;18.13;;;;;;;7.21;55.67;98688.34;5026593;28;20041;-51
2022/04/02 12:47:08;;;;;;;22.35;9.50;;;;;;;7.40;56.55;98675.63;5027015;28;20095;-51
2022/04/02 12:49:53;;;;;;;20.50;8.20;;;;;;;7.50;55.19;98685.72;5026728;28;20053;-50
2022/04/02 12:52:45;;;;;;;18.58;4.68;;;;;;;7.41;55.78;98686.00;5025574;28;20050;-51
2022/04/02 12:55:32;;;;;;;16.63;5.50;;;;;;;7.83;56.36;98671.69;5025939;28;20465;-50
2022/04/02 12:58:16;;;;;;;24.95;7.85;;;;;;;7.53;53.18;98674.34;5027410;28;20056;-50
2022/04/02 13:01:17;;;;;;;29.70;10.15;;;;;;;7.67;54.75;98676.53;5025501;28;20054;-50
2022/04/02 13:04:10;;;;;;;24.08;5.60;;;;;;;7.84;50.84;98671.66;5010135;28;20080;-50
2022/04/02 13:06:57;;;;;;;19.23;5.57;;;;;;;7.90;52.04;98688.88;5024541;28;20050;-51
2022/04/02 13:09:44;;;;;;;87.82;30.17;;;;;;;7.46;48.31;98683.25;5024319;28;20050;-51
2022/04/02 13:12:30;;;;;;;20.50;5.90;;;;;;;7.88;49.27;98685.44;5026389;28;20049;-51
2022/04/02 13:15:15;;;;;;;42.17;11.48;;;;;;;8.31;49.05;98678.81;5025356;28;20053;-51
2022/04/02 13:21:09;;;;;;;25.58;5.38;;;;;;;8.62;47.47;98673.44;5025801;28;20124;-50